Terminal Aerodrome Forecast
Issued by NWS

Home | Current Version | Previous Version | Graphics & Text | Print | Product List | Glossary On
Versions: 1 2 3 4 5 6 7 8 9 10 11 12 13 14 15 16 17 18
000
FTUS45 KGGW 050900 AAB
TAFSDY
TAF AMD
KSDY 050937Z 0510/0606 36010KT 6SM -SHRA VCTS SCT050CB BKN080
      TEMPO 0510/0512 VRB20G30KT 3SM TS
     FM051800 36014KT P6SM VCSH BKN045
     FM060000 35008KT P6SM BKN070
      AMD LTD TO CLD VIS AND WIND=

USA.gov is the U.S. government's official web portal to all federal, state and local government web resources and services.